Time;durP1;ratioP1;P1;durP2;ratioP2;P2;SDS_P1;SDS_P2;PMS_P1;PMS_P2;Temp;Humidity;BMP_temperature;BMP_pressure;BME280_temperature;BME280_humidity;BME280_pressure;Samples;Min_cycle;Max_cycle;Signal;HPM_P1;HPM_P2
2022/04/12 00:01:35;;;;;;;10.70;6.10;;;7.40;99.90;;;;;;4996415;28;20046;-71
2022/04/12 00:04:01;;;;;;;10.73;5.78;;;7.30;99.90;;;;;;4981064;28;20037;-71
2022/04/12 00:06:27;;;;;;;12.43;6.63;;;7.30;99.90;;;;;;4983294;28;20073;-71
2022/04/12 00:08:52;;;;;;;11.48;6.30;;;7.30;99.90;;;;;;5000545;28;20073;-71
2022/04/12 00:11:18;;;;;;;9.73;5.82;;;7.30;99.90;;;;;;5015845;28;20041;-71
2022/04/12 00:13:43;;;;;;;10.60;5.97;;;7.40;99.90;;;;;;5016976;28;20040;-71
2022/04/12 00:16:09;;;;;;;11.20;6.55;;;7.40;99.90;;;;;;4998777;28;20076;-71
2022/04/12 00:21:19;;;;;;;11.48;6.43;;;7.20;99.90;;;;;;5015604;28;20505;-71
2022/04/12 00:23:46;;;;;;;11.50;6.22;;;7.20;99.90;;;;;;5000069;28;20087;-71
2022/04/12 00:26:11;;;;;;;13.50;6.47;;;7.30;99.90;;;;;;5015554;28;20489;-71
2022/04/12 00:28:37;;;;;;;10.23;6.18;;;7.30;99.90;;;;;;5016486;28;20048;-71
2022/04/12 00:31:03;;;;;;;11.82;6.07;;;7.20;99.90;;;;;;5015173;28;20034;-71
2022/04/12 00:33:29;;;;;;;12.30;6.97;;;7.30;99.90;;;;;;5015533;28;20455;-72
2022/04/12 00:35:56;;;;;;;11.60;7.05;;;7.20;99.90;;;;;;5015713;28;20152;-71
2022/04/12 00:38:23;;;;;;;10.85;6.07;;;7.20;99.90;;;;;;5016457;28;20098;-71
2022/04/12 00:40:49;;;;;;;10.68;6.30;;;7.20;99.90;;;;;;4998944;28;20049;-72
2022/04/12 00:43:17;;;;;;;12.35;6.68;;;7.20;99.90;;;;;;5015640;28;20049;-72
2022/04/12 00:45:42;;;;;;;11.13;6.10;;;7.10;99.90;;;;;;4995379;28;20045;-72
2022/04/12 00:48:08;;;;;;;12.02;6.53;;;7.10;99.90;;;;;;4979940;28;20044;-72
2022/04/12 00:50:33;;;;;;;12.75;6.28;;;7.20;99.90;;;;;;5008961;28;20036;-72
2022/04/12 00:52:59;;;;;;;11.93;6.63;;;7.10;99.90;;;;;;4999104;28;20116;-71
2022/04/12 00:55:25;;;;;;;10.77;6.70;;;7.10;99.90;;;;;;5004661;28;20057;-72
2022/04/12 00:57:51;;;;;;;11.88;6.97;;;7.00;99.90;;;;;;5015291;28;20056;-72
2022/04/12 01:00:18;;;;;;;11.23;7.00;;;6.90;99.90;;;;;;4992867;28;20041;-71
2022/04/12 01:02:44;;;;;;;11.45;6.90;;;7.00;99.90;;;;;;4997525;28;20083;-72
2022/04/12 01:05:09;;;;;;;10.45;6.45;;;7.00;99.90;;;;;;4999350;28;20051;-71
2022/04/12 01:07:37;;;;;;;11.00;6.43;;;6.90;99.90;;;;;;5015730;28;20124;-71
2022/04/12 01:10:04;;;;;;;13.23;7.53;;;7.00;99.90;;;;;;5015683;28;20501;-71
2022/04/12 01:12:30;;;;;;;11.10;6.95;;;6.90;99.90;;;;;;5016001;28;20236;-71
2022/04/12 01:15:16;;;;;;;12.27;7.40;;;6.80;99.90;;;;;;4999415;28;20076;-71
2022/04/12 01:17:45;;;;;;;12.48;7.03;;;6.80;99.90;;;;;;5015685;28;20041;-71
2022/04/12 01:20:13;;;;;;;13.00;7.72;;;6.80;99.90;;;;;;5005651;28;20041;-72
2022/04/12 01:22:51;;;;;;;16.25;7.78;;;6.80;99.90;;;;;;4979426;28;20084;-71
2022/04/12 01:25:18;;;;;;;12.52;7.78;;;6.80;99.90;;;;;;4995875;28;20049;-71
2022/04/12 01:27:44;;;;;;;13.48;7.97;;;6.80;99.90;;;;;;4995884;28;20121;-71
2022/04/12 01:30:10;;;;;;;13.70;8.30;;;6.90;99.90;;;;;;4995876;28;20129;-72
2022/04/12 01:32:35;;;;;;;12.30;7.57;;;6.80;99.90;;;;;;4979630;28;20038;-71
2022/04/12 01:35:01;;;;;;;11.70;7.18;;;6.80;99.90;;;;;;4979721;28;20049;-71
2022/04/12 01:37:27;;;;;;;13.35;7.95;;;6.80;99.90;;;;;;4979770;28;20124;-72
2022/04/12 01:39:52;;;;;;;13.05;8.35;;;6.70;99.90;;;;;;4995847;28;20034;-72
2022/04/12 01:42:18;;;;;;;13.50;7.82;;;6.70;99.90;;;;;;4995696;28;20117;-71
2022/04/12 01:44:43;;;;;;;12.38;7.80;;;6.70;99.90;;;;;;4979527;28;20172;-72
2022/04/12 01:47:09;;;;;;;13.88;7.80;;;6.70;99.90;;;;;;4979590;28;20502;-71
2022/04/12 01:49:34;;;;;;;12.02;7.88;;;6.70;99.90;;;;;;4995794;28;20038;-71
2022/04/12 01:52:03;;;;;;;11.68;8.25;;;6.70;99.90;;;;;;4995619;28;20137;-71
2022/04/12 01:54:29;;;;;;;12.02;7.50;;;6.70;99.90;;;;;;4995626;28;20042;-72
2022/04/12 01:56:55;;;;;;;13.60;8.05;;;6.80;99.90;;;;;;5006975;28;20190;-72
2022/04/12 01:59:21;;;;;;;11.95;7.75;;;6.80;99.90;;;;;;5017205;28;20049;-72
2022/04/12 02:01:46;;;;;;;14.93;8.75;;;6.60;99.90;;;;;;5002885;28;20096;-72
2022/04/12 02:04:12;;;;;;;11.93;7.63;;;6.60;99.90;;;;;;5003032;28;20433;-72
2022/04/12 02:06:37;;;;;;;13.15;8.65;;;6.70;99.90;;;;;;5019132;28;20144;-72
2022/04/12 02:09:03;;;;;;;11.32;7.30;;;6.70;99.90;;;;;;5002996;28;20073;-72
2022/04/12 02:11:28;;;;;;;14.55;8.50;;;6.70;99.90;;;;;;5002888;28;20072;-72
2022/04/12 02:13:54;;;;;;;12.13;8.48;;;6.60;99.90;;;;;;5019061;28;20041;-72
2022/04/12 02:16:19;;;;;;;13.20;8.20;;;6.60;99.90;;;;;;5002673;28;20147;-71
2022/04/12 02:18:45;;;;;;;11.75;8.20;;;6.60;99.90;;;;;;5018928;28;20037;-71
2022/04/12 02:21:11;;;;;;;12.60;8.60;;;6.50;99.90;;;;;;5002480;28;20049;-71
2022/04/12 02:23:36;;;;;;;12.77;8.13;;;6.50;99.90;;;;;;5018595;28;20045;-72
2022/04/12 02:26:02;;;;;;;13.35;8.50;;;6.50;99.90;;;;;;5018769;28;20037;-71
2022/04/12 02:28:27;;;;;;;13.00;8.68;;;6.40;99.90;;;;;;5002472;28;20029;-71
2022/04/12 02:30:53;;;;;;;14.63;8.95;;;6.40;99.90;;;;;;5018637;28;20048;-71
2022/04/12 02:33:18;;;;;;;12.57;8.05;;;6.40;99.90;;;;;;5018720;28;20091;-72
2022/04/12 02:35:44;;;;;;;13.18;8.30;;;6.40;99.90;;;;;;5018619;28;20045;-71
2022/04/12 02:38:09;;;;;;;14.68;8.75;;;6.40;99.90;;;;;;5002418;28;20045;-72
2022/04/12 02:40:35;;;;;;;13.43;9.43;;;6.40;99.90;;;;;;5018567;28;20056;-71
2022/04/12 02:43:00;;;;;;;12.82;8.60;;;6.30;99.90;;;;;;5018387;28;20556;-72
2022/04/12 02:45:26;;;;;;;14.57;9.18;;;6.30;99.90;;;;;;5002208;28;20064;-72
2022/04/12 02:47:51;;;;;;;13.30;8.73;;;6.30;99.90;;;;;;5018376;28;20049;-71
2022/04/12 02:50:17;;;;;;;14.38;8.68;;;6.40;99.90;;;;;;5018325;28;20481;-71
2022/04/12 02:52:42;;;;;;;12.88;8.52;;;6.30;99.90;;;;;;5018191;28;20490;-71
2022/04/12 02:55:08;;;;;;;13.85;8.90;;;6.40;99.90;;;;;;5018239;28;20542;-71
2022/04/12 02:57:34;;;;;;;12.68;8.70;;;6.30;99.90;;;;;;5001320;28;20556;-71
2022/04/12 02:59:59;;;;;;;15.43;9.13;;;6.30;99.90;;;;;;4998524;28;20414;-71
2022/04/12 03:02:25;;;;;;;15.30;8.68;;;6.20;99.90;;;;;;4982386;28;20128;-71
2022/04/12 03:04:50;;;;;;;13.00;8.70;;;6.20;99.90;;;;;;4998350;28;20042;-71
2022/04/12 03:07:16;;;;;;;13.38;8.77;;;6.20;99.90;;;;;;4998313;28;20405;-71
2022/04/12 03:09:42;;;;;;;13.48;9.02;;;6.20;99.90;;;;;;4981676;28;20038;-71
2022/04/12 03:12:08;;;;;;;12.63;8.20;;;6.10;99.90;;;;;;4998484;28;20042;-71
2022/04/12 03:14:34;;;;;;;11.95;7.93;;;6.20;99.90;;;;;;4982122;28;20042;-71
2022/04/12 03:16:59;;;;;;;14.05;8.93;;;6.20;99.90;;;;;;4981889;28;20088;-71
2022/04/12 03:19:25;;;;;;;16.88;9.13;;;6.20;99.90;;;;;;4981958;28;20520;-71
2022/04/12 03:21:50;;;;;;;13.63;8.77;;;6.20;99.90;;;;;;4997935;28;20490;-71
2022/04/12 03:24:16;;;;;;;13.18;8.77;;;6.10;99.90;;;;;;4981694;28;20145;-71
2022/04/12 03:26:41;;;;;;;13.52;9.57;;;6.10;99.90;;;;;;4998044;28;20050;-71
2022/04/12 03:29:07;;;;;;;13.13;8.60;;;6.20;99.90;;;;;;4998002;28;20068;-71
2022/04/12 03:31:33;;;;;;;14.85;9.35;;;6.10;99.90;;;;;;4998127;28;20080;-71
2022/04/12 03:33:59;;;;;;;13.27;9.48;;;6.10;99.90;;;;;;4998104;28;20077;-71
2022/04/12 03:36:25;;;;;;;13.88;8.90;;;6.10;99.90;;;;;;4981703;28;20041;-71
2022/04/12 03:38:52;;;;;;;12.65;9.18;;;6.10;99.90;;;;;;4997876;28;20045;-71
2022/04/12 03:41:21;;;;;;;12.82;9.05;;;6.10;99.90;;;;;;4997835;28;20046;-71
2022/04/12 03:43:47;;;;;;;13.07;9.10;;;6.10;99.90;;;;;;4997891;28;20406;-71
2022/04/12 03:46:13;;;;;;;14.80;8.98;;;6.00;99.90;;;;;;4981483;28;20038;-71
2022/04/12 03:48:39;;;;;;;14.48;9.05;;;6.00;99.90;;;;;;4997615;28;20045;-71
2022/04/12 03:51:05;;;;;;;15.25;9.45;;;6.00;99.90;;;;;;4981248;28;20040;-71
2022/04/12 03:53:31;;;;;;;14.48;9.40;;;5.90;99.90;;;;;;4997401;28;20112;-71
2022/04/12 03:55:56;;;;;;;15.10;8.85;;;5.80;99.90;;;;;;5001191;28;20046;-71
2022/04/12 03:58:22;;;;;;;12.52;8.90;;;5.80;99.90;;;;;;5017307;28;20037;-71
2022/04/12 04:00:49;;;;;;;15.07;10.00;;;5.80;99.90;;;;;;5000757;28;20096;-71
2022/04/12 04:03:15;;;;;;;13.55;10.07;;;5.80;99.90;;;;;;5016879;28;20037;-71
2022/04/12 04:05:41;;;;;;;14.95;9.15;;;5.80;99.90;;;;;;5016728;28;20041;-71
2022/04/12 04:08:06;;;;;;;15.43;9.48;;;5.80;99.90;;;;;;5016812;28;20041;-71
2022/04/12 04:10:32;;;;;;;13.95;10.07;;;5.90;99.90;;;;;;5016854;28;20042;-71
2022/04/12 04:12:58;;;;;;;14.18;9.10;;;5.90;99.90;;;;;;5000385;28;20033;-71
2022/04/12 04:15:23;;;;;;;13.82;9.90;;;5.80;99.90;;;;;;5016804;28;20037;-71
2022/04/12 04:17:49;;;;;;;16.95;10.80;;;5.90;99.90;;;;;;5000437;28;20045;-71
2022/04/12 04:20:17;;;;;;;14.25;9.75;;;5.90;99.90;;;;;;5000147;28;20456;-71
2022/04/12 04:22:43;;;;;;;13.75;9.48;;;5.90;99.90;;;;;;5015469;28;20060;-71
2022/04/12 04:25:10;;;;;;;14.45;9.15;;;5.90;99.90;;;;;;5000098;28;20406;-71
2022/04/12 04:27:36;;;;;;;13.02;9.18;;;5.90;99.90;;;;;;5016704;28;20072;-71
2022/04/12 04:30:04;;;;;;;14.43;9.75;;;5.90;99.90;;;;;;5016777;28;20072;-71
2022/04/12 04:32:30;;;;;;;15.18;10.55;;;6.00;99.90;;;;;;5016287;28;20497;-71
2022/04/12 04:34:56;;;;;;;15.90;9.77;;;6.00;99.90;;;;;;4999940;28;20046;-71
2022/04/12 04:37:21;;;;;;;15.23;10.38;;;6.00;99.90;;;;;;5016317;28;20099;-71
2022/04/12 04:39:47;;;;;;;13.98;10.40;;;6.00;99.90;;;;;;5000027;28;20045;-71
2022/04/12 04:42:12;;;;;;;14.25;10.18;;;6.00;99.90;;;;;;5016185;28;20043;-71
2022/04/12 04:44:38;;;;;;;15.50;9.70;;;6.00;99.90;;;;;;4999718;28;20038;-71
2022/04/12 04:47:04;;;;;;;16.55;10.43;;;6.00;99.90;;;;;;4999842;28;20072;-71
2022/04/12 04:49:29;;;;;;;14.68;10.40;;;6.00;99.90;;;;;;4994960;28;20045;-71
2022/04/12 04:51:55;;;;;;;15.38;10.82;;;5.90;99.90;;;;;;5005485;28;20505;-71
2022/04/12 04:54:20;;;;;;;15.07;9.65;;;6.00;99.90;;;;;;5015822;28;20087;-71
2022/04/12 04:56:46;;;;;;;14.30;10.05;;;6.00;99.90;;;;;;5016042;28;20448;-71
2022/04/12 04:59:12;;;;;;;14.77;10.07;;;6.00;99.90;;;;;;5002079;28;20045;-71
2022/04/12 05:01:38;;;;;;;14.10;9.85;;;6.00;99.90;;;;;;4980119;28;20034;-72
2022/04/12 05:04:04;;;;;;;15.27;9.90;;;6.00;99.90;;;;;;4996359;28;20060;-72
2022/04/12 05:06:29;;;;;;;16.30;10.48;;;6.00;99.90;;;;;;4996160;28;20486;-72
2022/04/12 05:08:55;;;;;;;16.13;10.23;;;5.90;99.90;;;;;;4980004;28;20474;-72
2022/04/12 05:11:21;;;;;;;15.60;10.45;;;5.90;99.90;;;;;;5009949;28;20046;-72
2022/04/12 05:13:46;;;;;;;17.17;11.60;;;5.90;99.90;;;;;;5015655;28;20029;-72
2022/04/12 05:16:12;;;;;;;13.55;10.00;;;5.90;99.90;;;;;;5033392;28;20045;-72
2022/04/12 05:18:37;;;;;;;14.15;9.52;;;5.90;99.90;;;;;;5033301;28;20052;-72
2022/04/12 05:21:03;;;;;;;14.10;10.40;;;5.80;99.90;;;;;;5015964;28;20049;-72
2022/04/12 05:23:29;;;;;;;15.25;10.38;;;5.90;99.90;;;;;;5033082;28;20064;-72
2022/04/12 05:25:55;;;;;;;14.65;10.18;;;5.90;99.90;;;;;;4999140;28;20128;-72
2022/04/12 05:28:39;;;;;;;14.80;10.20;;;5.90;99.90;;;;;;5033422;28;20111;-72
2022/04/12 05:31:04;;;;;;;14.98;10.25;;;5.90;99.90;;;;;;5015554;28;20091;-72
2022/04/12 05:33:30;;;;;;;16.02;9.95;;;5.90;99.90;;;;;;5015218;28;20103;-72
2022/04/12 05:35:55;;;;;;;15.25;10.73;;;6.00;99.90;;;;;;4999205;28;20425;-72
2022/04/12 05:38:21;;;;;;;16.60;10.57;;;6.00;99.90;;;;;;5015528;28;20060;-72
2022/04/12 05:40:47;;;;;;;15.30;10.68;;;6.00;99.90;;;;;;5015713;28;20132;-72
2022/04/12 05:43:12;;;;;;;16.55;11.15;;;6.10;99.90;;;;;;4998956;28;20053;-72
2022/04/12 05:45:38;;;;;;;15.75;9.93;;;6.20;99.90;;;;;;5032942;28;20390;-72
2022/04/12 05:48:03;;;;;;;14.63;10.35;;;6.20;99.90;;;;;;5017695;28;20104;-72
2022/04/12 05:50:29;;;;;;;17.58;11.10;;;6.30;99.90;;;;;;4995726;28;20556;-72
2022/04/12 05:52:55;;;;;;;15.52;9.98;;;6.60;99.90;;;;;;5001814;28;20128;-72
2022/04/12 05:55:22;;;;;;;15.43;10.32;;;6.60;99.90;;;;;;5013055;28;20097;-72
2022/04/12 05:58:07;;;;;;;15.93;9.85;;;6.70;99.90;;;;;;5032736;28;20049;-72
2022/04/12 06:00:34;;;;;;;13.38;9.20;;;6.80;99.90;;;;;;5014647;28;20041;-72
2022/04/12 06:03:02;;;;;;;14.18;9.40;;;6.90;99.90;;;;;;4999206;28;20440;-72
2022/04/12 06:05:30;;;;;;;16.02;10.18;;;7.00;99.90;;;;;;4998471;28;20107;-72
2022/04/12 06:07:56;;;;;;;13.27;9.23;;;7.00;99.90;;;;;;5015095;28;20041;-72
2022/04/12 06:10:22;;;;;;;16.55;9.93;;;7.00;99.90;;;;;;4998733;28;20038;-72
2022/04/12 06:12:49;;;;;;;13.80;9.48;;;7.00;99.90;;;;;;4997495;28;20083;-72
2022/04/12 06:15:15;;;;;;;13.75;9.57;;;7.10;99.90;;;;;;4998318;28;20493;-72
2022/04/12 06:17:41;;;;;;;17.90;9.95;;;7.10;99.90;;;;;;5015102;28;20120;-72
2022/04/12 06:20:10;;;;;;;17.52;9.82;;;7.20;99.90;;;;;;5014715;28;20033;-72
2022/04/12 06:22:36;;;;;;;15.20;9.45;;;7.20;99.90;;;;;;4998545;28;20436;-72
2022/04/12 06:25:03;;;;;;;16.48;10.05;;;7.30;99.90;;;;;;4998181;28;20041;-73
2022/04/12 06:27:32;;;;;;;15.13;9.15;;;7.40;99.90;;;;;;5015386;28;20056;-72
2022/04/12 06:30:02;;;;;;;13.82;9.85;;;7.40;99.90;;;;;;4997527;28;20099;-73
2022/04/12 06:32:27;;;;;;;16.17;10.27;;;7.30;99.90;;;;;;4974220;28;20072;-73
2022/04/12 06:34:53;;;;;;;12.90;8.90;;;7.40;99.90;;;;;;4980771;28;20125;-72
2022/04/12 06:37:19;;;;;;;17.88;9.60;;;7.40;99.90;;;;;;4995423;28;20125;-73
2022/04/12 06:39:44;;;;;;;15.52;9.75;;;7.50;99.90;;;;;;4977291;28;20091;-73
2022/04/12 06:42:10;;;;;;;17.08;10.68;;;7.60;99.90;;;;;;4988791;28;20049;-72
2022/04/12 06:44:37;;;;;;;16.77;10.65;;;7.60;99.90;;;;;;4985192;28;20124;-72
2022/04/12 06:47:03;;;;;;;16.48;10.07;;;7.60;99.90;;;;;;4990893;28;20038;-77
2022/04/12 06:49:28;;;;;;;16.67;10.02;;;7.70;99.90;;;;;;4979832;28;20038;-77
2022/04/12 06:51:54;;;;;;;13.90;9.25;;;7.80;99.90;;;;;;4991648;28;20041;-73
2022/04/12 06:54:19;;;;;;;16.30;10.07;;;7.80;99.90;;;;;;4990177;28;20040;-72
2022/04/12 06:56:45;;;;;;;14.25;9.50;;;7.90;99.90;;;;;;5016023;28;20504;-72
2022/04/12 06:59:10;;;;;;;14.70;9.40;;;8.00;99.90;;;;;;5015558;28;20038;-72
2022/04/12 07:01:36;;;;;;;15.00;9.07;;;8.00;99.90;;;;;;4999343;28;20041;-72
2022/04/12 07:04:01;;;;;;;14.00;9.52;;;8.00;99.90;;;;;;4999321;28;20490;-72
2022/04/12 07:06:27;;;;;;;17.67;10.57;;;8.10;99.90;;;;;;4999776;28;20041;-72
2022/04/12 07:08:52;;;;;;;16.67;9.80;;;8.10;99.90;;;;;;5016488;28;20041;-72
2022/04/12 07:11:18;;;;;;;14.00;9.13;;;8.10;99.90;;;;;;4997082;28;20038;-73
2022/04/12 07:13:44;;;;;;;14.35;9.73;;;8.10;99.90;;;;;;4998309;28;20037;-72
2022/04/12 07:16:09;;;;;;;14.45;9.35;;;8.20;99.90;;;;;;5000953;28;20045;-72
2022/04/12 07:18:35;;;;;;;16.52;9.40;;;8.20;99.90;;;;;;5017269;28;20042;-72
2022/04/12 07:21:00;;;;;;;15.77;9.50;;;8.20;99.90;;;;;;5016401;28;20073;-72
2022/04/12 07:23:26;;;;;;;16.25;10.15;;;8.20;99.90;;;;;;4997959;28;20066;-72
2022/04/12 07:25:52;;;;;;;17.00;10.60;;;8.30;99.90;;;;;;4985155;28;20050;-72
2022/04/12 07:28:18;;;;;;;15.30;9.88;;;8.40;99.90;;;;;;4996616;28;20144;-72
2022/04/12 07:30:43;;;;;;;16.60;10.82;;;8.40;99.90;;;;;;5012803;28;20062;-72
2022/04/12 07:33:09;;;;;;;14.18;9.93;;;8.60;99.90;;;;;;5013234;28;20049;-72
2022/04/12 07:35:34;;;;;;;13.88;9.27;;;8.80;99.90;;;;;;5013055;28;20127;-73
2022/04/12 07:38:00;;;;;;;14.32;8.55;;;9.00;99.90;;;;;;5013844;28;20084;-72
2022/04/12 07:40:25;;;;;;;14.10;8.85;;;9.00;99.90;;;;;;4997139;28;20050;-72
2022/04/12 07:42:51;;;;;;;13.32;8.88;;;9.10;99.90;;;;;;5013704;28;20037;-72
2022/04/12 07:45:17;;;;;;;15.25;9.98;;;9.20;99.90;;;;;;5004278;28;20037;-72
2022/04/12 07:47:42;;;;;;;15.95;10.32;;;9.30;99.90;;;;;;5012989;28;20096;-73
2022/04/12 07:50:09;;;;;;;15.02;9.20;;;9.50;99.90;;;;;;4980920;28;20037;-73
2022/04/12 07:52:34;;;;;;;16.50;8.77;;;9.70;99.90;;;;;;4993639;28;20038;-73
2022/04/12 07:55:00;;;;;;;15.75;9.25;;;9.80;99.90;;;;;;5013908;28;20046;-72
2022/04/12 07:57:28;;;;;;;12.32;8.65;;;9.80;99.90;;;;;;5012624;28;20042;-73
2022/04/12 07:59:53;;;;;;;14.10;9.13;;;10.00;99.90;;;;;;5009984;28;20551;-73
2022/04/12 08:02:19;;;;;;;15.20;9.30;;;10.00;99.90;;;;;;4985649;28;20045;-72
2022/04/12 08:04:44;;;;;;;14.85;9.93;;;10.10;99.90;;;;;;4990865;28;20034;-73
2022/04/12 08:07:10;;;;;;;13.60;9.25;;;10.20;99.90;;;;;;5012118;28;20073;-73
2022/04/12 08:09:35;;;;;;;13.85;8.60;;;10.30;99.90;;;;;;5012538;28;20406;-73
2022/04/12 08:12:01;;;;;;;12.93;7.85;;;10.50;99.90;;;;;;4997057;28;20045;-73
2022/04/12 08:14:27;;;;;;;14.35;9.70;;;10.60;99.90;;;;;;5010716;28;20038;-73
2022/04/12 08:16:52;;;;;;;13.40;8.85;;;10.70;99.90;;;;;;5012952;28;20033;-73
2022/04/12 08:19:18;;;;;;;13.02;8.75;;;10.80;99.90;;;;;;4996587;28;20509;-73
2022/04/12 08:21:44;;;;;;;15.32;9.23;;;11.10;99.90;;;;;;5013599;28;20037;-73
2022/04/12 08:24:09;;;;;;;12.38;6.93;;;11.10;99.90;;;;;;5012736;28;20065;-73
2022/04/12 08:26:36;;;;;;;12.82;8.02;;;11.30;99.90;;;;;;5012488;28;20046;-73
2022/04/12 08:29:02;;;;;;;13.30;9.15;;;11.40;99.30;;;;;;5013275;28;20052;-73
2022/04/12 08:31:27;;;;;;;14.65;8.55;;;11.40;99.90;;;;;;5012795;28;20034;-73
2022/04/12 08:33:53;;;;;;;13.73;8.35;;;11.50;99.90;;;;;;5013006;28;20049;-73
2022/04/12 08:36:21;;;;;;;12.63;8.52;;;11.60;99.90;;;;;;4996635;28;20045;-73
2022/04/12 08:38:49;;;;;;;15.63;9.02;;;11.70;99.90;;;;;;5012627;28;20042;-73
2022/04/12 08:41:15;;;;;;;15.55;8.88;;;11.80;99.90;;;;;;4996309;28;20549;-73
2022/04/12 08:43:41;;;;;;;14.80;8.73;;;12.00;99.70;;;;;;5012825;28;20042;-73
2022/04/12 08:46:08;;;;;;;13.65;8.68;;;12.00;99.60;;;;;;4996063;28;20410;-73
2022/04/12 08:48:34;;;;;;;15.20;8.80;;;12.00;99.90;;;;;;5001963;28;20045;-73
2022/04/12 08:51:01;;;;;;;14.70;8.77;;;12.20;99.90;;;;;;4994027;28;20498;-73
2022/04/12 08:53:28;;;;;;;13.88;9.02;;;12.40;99.60;;;;;;4978855;28;20495;-73
2022/04/12 08:55:55;;;;;;;13.73;8.75;;;12.50;98.80;;;;;;5012570;28;20052;-73
2022/04/12 08:58:21;;;;;;;13.65;9.02;;;12.60;98.20;;;;;;4996191;28;20057;-73
2022/04/12 09:00:47;;;;;;;15.48;8.93;;;12.70;98.30;;;;;;4989939;28;20038;-73
2022/04/12 09:03:14;;;;;;;14.93;8.45;;;12.80;98.00;;;;;;4989354;28;20048;-73
2022/04/12 09:05:40;;;;;;;15.30;9.45;;;12.90;97.80;;;;;;5012455;28;20139;-73
2022/04/12 09:08:27;;;;;;;12.02;8.73;;;13.00;97.70;;;;;;5012075;28;20481;-74
2022/04/12 09:11:03;;;;;;;14.10;8.40;;;13.10;94.40;;;;;;4995839;28;20037;-73
2022/04/12 09:13:30;;;;;;;14.32;8.02;;;13.10;96.90;;;;;;5012200;28;20037;-73
2022/04/12 09:15:56;;;;;;;12.48;8.07;;;13.30;96.40;;;;;;4996048;28;20054;-74
2022/04/12 09:18:39;;;;;;;12.85;7.88;;;13.30;95.90;;;;;;4995240;28;20061;-73
2022/04/12 09:21:19;;;;;;;12.65;8.50;;;13.40;95.80;;;;;;4995721;28;20073;-74
2022/04/12 09:23:51;;;;;;;13.80;8.93;;;13.50;96.40;;;;;;4995603;28;20193;-74
2022/04/12 09:26:25;;;;;;;13.02;9.07;;;13.60;96.40;;;;;;4995988;28;20384;-74
2022/04/12 09:28:56;;;;;;;13.57;8.20;;;13.60;96.90;;;;;;4995591;28;20048;-74
2022/04/12 09:31:23;;;;;;;12.30;7.60;;;13.70;98.30;;;;;;4995819;28;20115;-74
2022/04/12 09:33:50;;;;;;;13.85;8.05;;;13.90;97.00;;;;;;5012469;28;20041;-74
2022/04/12 09:36:15;;;;;;;15.40;8.65;;;14.00;95.00;;;;;;5011589;28;20052;-74
2022/04/12 09:38:43;;;;;;;12.75;8.40;;;14.20;94.30;;;;;;5012058;28;20409;-74
2022/04/12 09:41:17;;;;;;;16.98;7.97;;;14.20;94.00;;;;;;5012124;28;20073;-74
2022/04/12 09:43:56;;;;;;;13.52;8.45;;;14.20;93.00;;;;;;4995487;28;20046;-74
2022/04/12 09:46:23;;;;;;;14.57;8.85;;;14.30;92.80;;;;;;4995185;28;20041;-74
2022/04/12 09:48:51;;;;;;;12.88;7.93;;;14.30;93.20;;;;;;4992345;28;20049;-74
2022/04/12 09:51:19;;;;;;;16.00;8.40;;;14.40;92.70;;;;;;4978802;28;20521;-74
2022/04/12 09:53:45;;;;;;;12.18;8.13;;;14.40;92.90;;;;;;4995585;28;20398;-73
2022/04/12 09:56:15;;;;;;;12.73;7.35;;;14.50;91.30;;;;;;5011978;28;20046;-74
2022/04/12 09:58:44;;;;;;;13.82;8.85;;;14.50;93.10;;;;;;5012993;28;20049;-74
2022/04/12 10:01:10;;;;;;;12.77;8.07;;;14.50;94.40;;;;;;5006037;28;20130;-73
2022/04/12 10:03:36;;;;;;;13.38;8.45;;;14.60;91.80;;;;;;4992659;28;20121;-74
2022/04/12 10:06:03;;;;;;;14.13;8.18;;;14.60;93.20;;;;;;4991760;28;20043;-74
2022/04/12 10:08:33;;;;;;;13.00;7.22;;;14.70;93.30;;;;;;4980563;28;20042;-74
2022/04/12 10:10:59;;;;;;;13.20;8.85;;;14.80;93.40;;;;;;5011813;28;20169;-74
2022/04/12 10:13:26;;;;;;;14.73;9.02;;;15.00;93.20;;;;;;4995427;28;20059;-74
2022/04/12 10:15:53;;;;;;;13.60;8.98;;;15.00;92.20;;;;;;5011735;28;20096;-74
2022/04/12 10:18:20;;;;;;;11.50;7.63;;;15.10;92.90;;;;;;5011533;28;20042;-74
2022/04/12 10:20:46;;;;;;;13.70;8.02;;;15.20;91.30;;;;;;5014317;28;20057;-74
2022/04/12 10:23:16;;;;;;;14.32;8.82;;;15.20;93.30;;;;;;4995079;28;20050;-74
2022/04/12 10:25:42;;;;;;;14.00;8.93;;;15.20;94.60;;;;;;4985448;28;20084;-74
2022/04/12 10:28:09;;;;;;;14.63;8.38;;;15.20;85.80;;;;;;4994419;28;20036;-74
2022/04/12 10:30:34;;;;;;;13.18;7.75;;;15.40;91.20;;;;;;4995790;28;20038;-74
2022/04/12 10:33:04;;;;;;;12.57;8.18;;;15.40;92.10;;;;;;4995682;28;20491;-74
2022/04/12 10:35:42;;;;;;;12.95;8.77;;;15.50;91.70;;;;;;4979756;28;20447;-74
2022/04/12 10:38:09;;;;;;;13.60;9.00;;;15.60;91.50;;;;;;4979064;28;20043;-73
2022/04/12 10:40:34;;;;;;;11.43;7.75;;;15.60;92.40;;;;;;4979295;28;20077;-72
2022/04/12 10:43:02;;;;;;;12.73;8.80;;;15.80;88.50;;;;;;4993425;28;20088;-73
2022/04/12 10:45:34;;;;;;;14.65;8.20;;;15.90;90.60;;;;;;4998826;28;20526;-73
2022/04/12 10:48:01;;;;;;;13.63;7.97;;;16.10;89.80;;;;;;5007845;28;20046;-73
2022/04/12 10:50:27;;;;;;;12.52;7.60;;;16.20;87.40;;;;;;5006864;28;20056;-73
2022/04/12 10:52:53;;;;;;;12.68;8.30;;;16.30;90.20;;;;;;5004492;28;20485;-73
2022/04/12 10:55:27;;;;;;;11.68;8.43;;;16.40;87.20;;;;;;4998224;28;20049;-73
2022/04/12 10:58:09;;;;;;;12.52;8.32;;;16.40;90.20;;;;;;5009752;28;20042;-73
2022/04/12 11:00:36;;;;;;;12.48;8.98;;;16.50;91.50;;;;;;4992322;28;20056;-73
2022/04/12 11:03:01;;;;;;;12.23;7.38;;;16.60;89.40;;;;;;5014026;28;20046;-73
2022/04/12 11:05:37;;;;;;;11.73;7.97;;;16.70;90.30;;;;;;4998121;28;20045;-73
2022/04/12 11:08:07;;;;;;;13.43;8.80;;;16.90;90.10;;;;;;4982985;28;20065;-73
2022/04/12 11:10:33;;;;;;;14.15;8.40;;;17.00;85.90;;;;;;5003487;28;20502;-73
2022/04/12 11:13:10;;;;;;;13.50;8.95;;;16.90;88.60;;;;;;5014559;28;20041;-73
2022/04/12 11:15:37;;;;;;;12.85;8.15;;;17.00;87.90;;;;;;5012713;28;20482;-73
2022/04/12 11:18:09;;;;;;;12.77;8.10;;;17.10;89.20;;;;;;4996076;28;20042;-73
2022/04/12 11:20:36;;;;;;;11.90;7.88;;;17.10;82.90;;;;;;4992823;28;20124;-73
2022/04/12 11:23:09;;;;;;;14.18;8.05;;;17.20;90.30;;;;;;5013993;28;20054;-72
2022/04/12 11:25:43;;;;;;;12.77;8.05;;;17.30;81.50;;;;;;5013998;28;20042;-73
2022/04/12 11:28:09;;;;;;;12.20;8.32;;;17.30;86.60;;;;;;4998472;28;20052;-72
2022/04/12 11:30:35;;;;;;;12.20;8.05;;;17.40;86.30;;;;;;4995592;28;20054;-73
2022/04/12 11:33:01;;;;;;;11.32;7.45;;;17.40;85.00;;;;;;5011705;28;20030;-73
2022/04/12 11:35:26;;;;;;;14.85;7.85;;;17.40;82.50;;;;;;5005711;28;20048;-72
2022/04/12 11:37:52;;;;;;;12.05;7.63;;;17.40;83.90;;;;;;4996259;28;20038;-72
2022/04/12 11:40:18;;;;;;;13.68;9.20;;;17.40;86.70;;;;;;5012109;28;20375;-72
2022/04/12 11:42:43;;;;;;;12.50;7.45;;;17.60;80.40;;;;;;4998039;28;20093;-72
2022/04/12 11:45:11;;;;;;;13.88;7.57;;;17.40;84.20;;;;;;5011805;28;20052;-72
2022/04/12 11:47:39;;;;;;;13.13;8.27;;;17.50;83.10;;;;;;5009509;28;20077;-72
2022/04/12 11:50:15;;;;;;;13.48;8.15;;;17.50;80.00;;;;;;4996211;28;20505;-72
2022/04/12 11:52:42;;;;;;;12.27;8.55;;;17.40;83.00;;;;;;5013949;28;20494;-73
2022/04/12 11:55:08;;;;;;;11.73;7.97;;;17.40;82.20;;;;;;5006106;28;20046;-72
2022/04/12 11:57:34;;;;;;;13.38;8.48;;;17.50;81.20;;;;;;4982049;28;20049;-73
2022/04/12 12:00:00;;;;;;;11.93;8.05;;;17.50;83.20;;;;;;5011249;28;20041;-73
2022/04/12 12:02:28;;;;;;;14.07;8.40;;;17.50;85.80;;;;;;4993255;28;20221;-73
2022/04/12 12:04:58;;;;;;;14.30;9.65;;;17.60;87.40;;;;;;4995358;28;20045;-73
2022/04/12 12:07:25;;;;;;;15.38;8.73;;;17.70;90.10;;;;;;5010882;28;20113;-72
2022/04/12 12:09:54;;;;;;;13.27;8.07;;;17.70;85.90;;;;;;4996907;28;20038;-72
2022/04/12 12:12:20;;;;;;;14.52;8.20;;;17.80;82.70;;;;;;5011162;28;20037;-73
2022/04/12 12:14:46;;;;;;;11.82;7.57;;;17.90;78.90;;;;;;5012912;28;20042;-73
2022/04/12 12:17:18;;;;;;;13.45;7.68;;;17.90;79.90;;;;;;4995663;28;20065;-73
2022/04/12 12:19:44;;;;;;;13.35;9.00;;;18.00;78.80;;;;;;4996790;28;20049;-72
2022/04/12 12:22:12;;;;;;;12.40;6.97;;;18.10;75.70;;;;;;5012771;28;20050;-73
2022/04/12 12:24:50;;;;;;;11.15;6.82;;;18.00;79.20;;;;;;5011775;28;20057;-73
2022/04/12 12:27:52;;;;;;;14.60;7.90;;;18.10;73.60;;;;;;4981416;28;20042;-73
2022/04/12 12:30:19;;;;;;;12.70;7.82;;;18.10;72.80;;;;;;4985533;28;20077;-72
2022/04/12 12:32:45;;;;;;;12.45;6.28;;;18.00;78.60;;;;;;5012091;28;20042;-73
2022/04/12 12:35:13;;;;;;;13.45;8.13;;;18.20;70.70;;;;;;5010676;28;20069;-72
2022/04/12 12:37:41;;;;;;;13.00;8.20;;;18.20;73.50;;;;;;4994770;28;20402;-72
2022/04/12 12:40:25;;;;;;;13.60;7.90;;;18.30;68.50;;;;;;5010328;28;20520;-73
2022/04/12 12:42:53;;;;;;;15.50;8.40;;;18.20;74.70;;;;;;4994884;28;20042;-73